首页
METAR-TAF:

METAR-TAF

机场 :

纳塔尔, 北里约格朗德, 巴西

纬度: 05-46-05S, 经度: 035-22-34W, 海拔: 88米

当前天气观测

该预报发布于1小时和11分钟前的14:00 UTC
风速5节,风向,在南转南东西转西南之间变化
温度 26°C
湿度 89%
气压 1013 hPa
能見度: 8000
散云层高于800英尺
多云层高于1700英尺
少量云层高于2500英尺, 塔状积云.
多云层高于7000英尺
附近有阵雨

METAR: SBSG 201400Z 19005KT 150V240 8000 VCSH SCT008 BKN017 FEW025TCU BKN070 26/24 Q1013

时间: 12:11 (15:11 UTC)

预报

该预报发布于5小时和11分钟前的10:00 UTC
预报有效从20日的 12点(UTC)到 21日的 12点(UTC)
风速13节,风向南转南东
能見度: 8000
散云层高于1000英尺
多云层高于2000英尺
成为
从 20日的 17点(UTC)到 20日的 19点(UTC)
散云层高于1800英尺
散云层高于2000英尺
成为
从 20日的 21点(UTC)到 20日的 22点(UTC)
风速8节,风向
成为
从 21日的 00点(UTC)到 21日的 0点(UTC)
风速6节,风向南转西南
成为
从 21日的 08点(UTC)到 21日的 10点(UTC)
多云层高于1500英尺

TAF: SBSG 201000Z 2012/2112 16013KT 8000 SCT010 BKN020 TX30/2015Z TN23 /2108Z BECMG 2017/2019 SCT018 SCT020 BECMG 2021/2022 18008KT BECMG 2100/210 1 20006KT BECMG 2108/2110 BKN015 RMK PEU

超过4000个机场的气象观测和天气预报(METAR&TAF报告)。

可查询的气象台以黄色和红色小点在地图上表示。

将鼠标移到小点上方,可查看气象台名称。

然后点击查看天气观测和预报。

如需切换地图:点击带黑十字的绿色按钮放大地图;点击带横线的绿色按钮缩小地图;或者点击绿色箭头查看邻近地区的地图。


METAR-TAF: